createdAt,value
2023-03-26T00:01:23.823Z,96425.47
2023-03-26T00:03:54.902Z,96426.25
2023-03-26T00:06:36.787Z,96426.25
2023-03-26T00:09:06.278Z,96428.09
2023-03-26T00:11:33.511Z,96420.28
2023-03-26T00:14:00.199Z,96434.53
2023-03-26T00:16:30.252Z,96435.81
2023-03-26T00:18:57.877Z,96435.53
2023-03-26T00:21:27.849Z,96435.75
2023-03-26T00:23:56.978Z,96440.25
2023-03-26T00:26:24.126Z,96442.66
2023-03-26T00:28:50.980Z,96447.97
2023-03-26T00:31:18.428Z,96451.69
2023-03-26T00:33:45.601Z,96448.47
2023-03-26T00:36:15.384Z,96445.50
2023-03-26T00:38:43.100Z,96453.00
2023-03-26T00:41:22.858Z,96447.81
2023-03-26T00:43:52.330Z,96444.03
2023-03-26T00:46:19.636Z,96444.69
2023-03-26T00:48:46.611Z,96437.63
2023-03-26T00:51:16.348Z,96444.09
2023-03-26T00:53:45.371Z,96432.28
2023-03-26T00:56:12.677Z,96419.97
2023-03-26T00:58:39.815Z,96421.56
2023-03-26T01:01:10.484Z,96421.72
2023-03-26T01:03:38.640Z,96440.47
2023-03-26T01:06:28.086Z,96449.38
2023-03-26T01:09:00.184Z,96449.94
2023-03-26T01:11:30.172Z,96448.13
2023-03-26T01:14:01.038Z,96448.66
2023-03-26T01:16:37.370Z,96452.75
2023-03-26T01:19:14.059Z,96442.75
2023-03-26T01:21:41.032Z,96436.34
2023-03-26T01:24:10.029Z,96440.94
2023-03-26T01:27:27.372Z,96445.91
2023-03-26T01:30:20.121Z,96451.88
2023-03-26T01:33:05.588Z,96457.06
2023-03-26T01:35:51.317Z,96458.75
2023-03-26T01:38:46.985Z,96462.75
2023-03-26T01:41:32.219Z,96464.03
2023-03-26T01:44:35.742Z,96464.56
2023-03-26T01:47:04.614Z,96460.78
2023-03-26T01:49:31.929Z,96455.16
2023-03-26T01:51:59.015Z,96466.09
2023-03-26T01:54:31.500Z,96458.00
2023-03-26T01:57:10.647Z,96470.91
2023-03-26T01:59:49.381Z,96468.72
2023-03-26T02:02:46.528Z,96470.91
2023-03-26T02:05:36.173Z,96469.09
2023-03-26T02:08:09.952Z,96479.09
2023-03-26T02:10:42.008Z,96483.47
2023-03-26T02:13:08.983Z,96481.66
2023-03-26T02:15:36.197Z,96481.03
2023-03-26T02:18:04.191Z,96491.34
2023-03-26T02:20:31.119Z,96498.13
2023-03-26T02:22:58.528Z,96494.41
2023-03-26T02:25:25.159Z,96489.09
2023-03-26T02:27:53.271Z,96498.53
2023-03-26T02:30:26.599Z,96503.72
2023-03-26T02:32:54.193Z,96491.16
2023-03-26T02:35:22.352Z,96499.47
2023-03-26T02:37:51.269Z,96507.88
2023-03-26T02:40:25.168Z,96500.94
2023-03-26T02:42:52.053Z,96509.53
2023-03-26T02:45:18.799Z,96510.66
2023-03-26T02:47:46.153Z,96507.41
2023-03-26T02:50:12.960Z,96509.81
2023-03-26T02:52:39.707Z,96512.16
2023-03-26T02:55:07.414Z,96513.78
2023-03-26T02:57:34.224Z,96524.84
2023-03-26T03:00:09.145Z,96529.22
2023-03-26T03:02:38.746Z,96527.84
2023-03-26T03:05:06.030Z,96531.13
2023-03-26T03:07:32.989Z,96519.59
2023-03-26T03:10:02.502Z,96528.84
2023-03-26T03:12:29.148Z,96527.75
2023-03-26T03:14:56.208Z,96523.72
2023-03-26T03:17:23.297Z,96519.97
2023-03-26T03:19:49.933Z,96510.34
2023-03-26T03:22:16.845Z,96514.34
2023-03-26T03:24:43.947Z,96523.50
2023-03-26T03:27:10.655Z,96531.88
2023-03-26T03:29:37.966Z,96529.53
2023-03-26T03:32:05.373Z,96527.97
2023-03-26T03:34:32.056Z,96510.34
2023-03-26T03:36:58.929Z,96529.22
2023-03-26T03:39:25.595Z,96531.66
2023-03-26T03:41:52.201Z,96542.50
2023-03-26T03:44:19.136Z,96538.56
2023-03-26T03:46:45.990Z,96537.25
2023-03-26T03:49:12.745Z,96526.84
2023-03-26T03:51:39.578Z,96539.59
2023-03-26T03:54:06.829Z,96528.34
2023-03-26T03:56:33.504Z,96544.63
2023-03-26T03:59:00.656Z,96532.81
2023-03-26T04:01:30.742Z,96528.09
2023-03-26T04:03:58.817Z,96531.59
2023-03-26T04:06:25.858Z,96525.22
2023-03-26T04:08:52.801Z,96527.69
2023-03-26T04:11:19.469Z,96522.06
2023-03-26T04:13:46.244Z,96531.25
2023-03-26T04:16:13.025Z,96530.22
2023-03-26T04:18:40.057Z,96525.13
2023-03-26T04:21:07.566Z,96528.91
2023-03-26T04:23:34.829Z,96531.91
2023-03-26T04:26:06.498Z,96526.03
2023-03-26T04:28:42.453Z,96528.50
2023-03-26T04:31:13.952Z,96535.72
2023-03-26T04:33:40.854Z,96535.50
2023-03-26T04:36:09.796Z,96542.25
2023-03-26T04:38:49.416Z,96547.63
2023-03-26T04:41:16.343Z,96551.41
2023-03-26T04:43:47.444Z,96556.56
2023-03-26T04:46:14.653Z,96554.41
2023-03-26T04:48:41.657Z,96556.03
2023-03-26T04:51:10.121Z,96560.06
2023-03-26T04:53:37.360Z,96566.25
2023-03-26T04:56:13.860Z,96564.66
2023-03-26T04:58:40.699Z,96575.72
2023-03-26T05:01:11.148Z,96572.47
2023-03-26T05:03:40.895Z,96567.13
2023-03-26T05:06:11.003Z,96577.31
2023-03-26T05:08:37.687Z,96566.00
2023-03-26T05:11:07.588Z,96577.81
2023-03-26T05:13:34.398Z,96570.06
2023-03-26T05:16:01.210Z,96567.09
2023-03-26T05:18:28.046Z,96567.91
2023-03-26T05:20:57.417Z,96563.34
2023-03-26T05:23:24.343Z,96578.91
2023-03-26T05:25:52.067Z,96568.72
2023-03-26T05:28:24.863Z,96563.84
2023-03-26T05:30:53.804Z,96568.41
2023-03-26T05:33:22.425Z,96579.41
2023-03-26T05:36:00.361Z,96575.66
2023-03-26T05:38:29.082Z,96574.28
2023-03-26T05:41:01.626Z,96571.84
2023-03-26T05:43:29.057Z,96569.69
2023-03-26T05:45:55.980Z,96567.81
2023-03-26T05:48:23.859Z,96572.03
2023-03-26T05:50:52.552Z,96583.00
2023-03-26T05:53:21.529Z,96578.09
2023-03-26T05:55:58.693Z,96585.03
2023-03-26T05:58:30.650Z,96583.34
2023-03-26T06:01:06.083Z,96573.88
2023-03-26T06:03:33.329Z,96579.19
2023-03-26T06:06:00.151Z,96589.84
2023-03-26T06:08:27.279Z,96577.44
2023-03-26T06:11:01.892Z,96591.38
2023-03-26T06:13:28.972Z,96577.59
2023-03-26T06:15:56.249Z,96582.91
2023-03-26T06:18:23.118Z,96563.34
2023-03-26T06:20:50.085Z,96584.69
2023-03-26T06:23:17.396Z,96582.25
2023-03-26T06:25:45.722Z,96590.06
2023-03-26T06:28:12.976Z,96595.41
2023-03-26T06:30:40.566Z,96593.50
2023-03-26T06:33:07.650Z,96601.50
2023-03-26T06:35:35.328Z,96600.16
2023-03-26T06:38:02.226Z,96607.88
2023-03-26T06:40:29.377Z,96607.81
2023-03-26T06:43:09.173Z,96615.31
2023-03-26T06:45:37.992Z,96621.59
2023-03-26T06:48:05.808Z,96620.13
2023-03-26T06:50:33.058Z,96621.09
2023-03-26T06:53:00.391Z,96624.47
2023-03-26T06:55:27.814Z,96606.63
2023-03-26T06:57:56.022Z,96619.13
2023-03-26T07:00:23.006Z,96610.19
2023-03-26T07:02:50.661Z,96608.94
2023-03-26T07:05:17.434Z,96616.41
2023-03-26T07:07:46.345Z,96601.53
2023-03-26T07:10:14.176Z,96599.72
2023-03-26T07:12:42.482Z,96602.97
2023-03-26T07:15:10.330Z,96605.44
2023-03-26T07:17:38.319Z,96608.19
2023-03-26T07:20:06.602Z,96604.34
2023-03-26T07:22:33.933Z,96600.53
2023-03-26T07:25:01.159Z,96587.59
2023-03-26T07:27:36.125Z,96596.06
2023-03-26T07:30:13.870Z,96595.19
2023-03-26T07:32:55.862Z,96594.66
2023-03-26T07:35:22.996Z,96600.88
2023-03-26T07:38:11.578Z,96594.75
2023-03-26T07:40:41.543Z,96591.94
2023-03-26T07:43:31.553Z,96589.63
2023-03-26T07:45:58.807Z,96588.66
2023-03-26T07:48:29.655Z,96568.81
2023-03-26T07:50:56.979Z,96583.81
2023-03-26T07:53:24.705Z,96584.81
2023-03-26T07:56:21.442Z,96588.66
2023-03-26T07:59:03.667Z,96580.41
2023-03-26T08:01:50.107Z,96589.31
2023-03-26T08:04:23.231Z,96581.56
2023-03-26T08:06:59.960Z,96584.38
2023-03-26T08:09:51.791Z,96578.75
2023-03-26T08:12:24.993Z,96570.13
2023-03-26T08:15:09.819Z,96574.28
2023-03-26T08:17:44.957Z,96580.66
2023-03-26T08:20:45.856Z,96574.88
2023-03-26T08:23:36.322Z,96572.91
2023-03-26T08:26:30.793Z,96569.50
2023-03-26T08:28:57.534Z,96581.13
2023-03-26T08:31:39.322Z,96580.09
2023-03-26T08:34:06.904Z,96579.41
2023-03-26T08:36:34.244Z,96572.88
2023-03-26T08:39:01.527Z,96582.31
2023-03-26T08:41:43.089Z,96575.47
2023-03-26T08:44:15.612Z,96585.19
2023-03-26T08:47:16.397Z,96582.13
2023-03-26T08:50:20.176Z,96593.88
2023-03-26T08:53:11.209Z,96597.22
2023-03-26T08:55:49.401Z,96592.75
2023-03-26T08:58:21.690Z,96594.81
2023-03-26T09:01:07.455Z,96601.47
2023-03-26T09:04:10.316Z,96602.03
2023-03-26T09:06:48.929Z,96600.38
2023-03-26T09:09:57.587Z,96593.72
2023-03-26T09:12:30.209Z,96595.91
2023-03-26T09:15:24.437Z,96593.59
2023-03-26T09:18:18.740Z,96591.69
2023-03-26T09:21:04.104Z,96587.78
2023-03-26T09:23:33.926Z,96595.47
2023-03-26T09:26:19.418Z,96588.94
2023-03-26T09:29:16.044Z,96585.13
2023-03-26T09:31:45.871Z,96588.94
2023-03-26T09:34:35.915Z,96586.78
2023-03-26T09:37:20.516Z,96574.41
2023-03-26T09:40:12.819Z,96581.31
2023-03-26T09:42:55.140Z,96589.16
2023-03-26T09:45:54.200Z,96580.34
2023-03-26T09:48:46.018Z,96587.25
2023-03-26T09:51:59.960Z,96578.63
2023-03-26T09:55:19.740Z,96580.53
2023-03-26T09:57:58.458Z,96580.38
2023-03-26T10:00:53.322Z,96572.06
2023-03-26T10:03:26.986Z,96576.22
2023-03-26T10:05:59.848Z,96566.00
2023-03-26T10:08:39.460Z,96566.94
2023-03-26T10:11:21.694Z,96577.16
2023-03-26T10:14:00.847Z,96565.50
2023-03-26T10:17:15.523Z,96569.00
2023-03-26T10:20:17.929Z,96561.97
2023-03-26T10:23:06.798Z,96554.94
2023-03-26T10:25:43.869Z,96562.78
2023-03-26T10:28:45.587Z,96558.94
2023-03-26T10:31:27.750Z,96557.34
2023-03-26T10:34:01.388Z,96566.94
2023-03-26T10:36:35.134Z,96560.63
2023-03-26T10:39:38.939Z,96560.94
2023-03-26T10:42:33.276Z,96567.94
2023-03-26T10:45:24.380Z,96556.13
2023-03-26T10:47:56.096Z,96565.06
2023-03-26T10:50:46.964Z,96547.44
2023-03-26T10:54:06.195Z,96553.41
2023-03-26T10:56:36.636Z,96556.09
2023-03-26T10:59:09.345Z,96546.84
2023-03-26T11:01:42.159Z,96543.88
2023-03-26T11:04:47.388Z,96537.38
2023-03-26T11:07:34.617Z,96547.44
2023-03-26T11:10:18.587Z,96538.47
2023-03-26T11:12:52.891Z,96540.88
2023-03-26T11:16:18.189Z,96546.47
2023-03-26T11:18:58.355Z,96545.34
2023-03-26T11:21:45.542Z,96528.56
2023-03-26T11:24:48.566Z,96521.53
2023-03-26T11:28:05.180Z,96518.31
2023-03-26T11:31:00.170Z,96511.00
2023-03-26T11:33:33.159Z,96511.13
2023-03-26T11:36:10.341Z,96521.50
2023-03-26T11:38:42.164Z,96508.88
2023-03-26T11:41:16.590Z,96522.31
2023-03-26T11:43:59.810Z,96520.28
2023-03-26T11:46:27.292Z,96504.63
2023-03-26T11:48:59.555Z,96503.03
2023-03-26T11:51:38.261Z,96515.53
2023-03-26T11:54:07.933Z,96509.13
2023-03-26T11:57:05.387Z,96487.25
2023-03-26T11:59:56.569Z,96503.25
2023-03-26T12:02:38.301Z,96500.97
2023-03-26T12:05:25.243Z,96506.13
2023-03-26T12:08:05.029Z,96491.75
2023-03-26T12:10:42.978Z,96497.47
2023-03-26T12:13:37.390Z,96494.50
2023-03-26T12:16:19.418Z,96492.38
2023-03-26T12:18:57.706Z,96482.63
2023-03-26T12:21:24.519Z,96477.50
2023-03-26T12:24:04.446Z,96476.56
2023-03-26T12:26:50.276Z,96457.41
2023-03-26T12:29:19.022Z,96474.38
2023-03-26T12:32:03.665Z,96473.72
2023-03-26T12:34:36.137Z,96464.91
2023-03-26T12:37:05.221Z,96464.56
2023-03-26T12:40:07.795Z,96463.75
2023-03-26T12:44:48.226Z,96454.50
2023-03-26T12:45:23.121Z,96451.22
2023-03-26T12:48:00.940Z,96461.16
2023-03-26T12:50:43.161Z,96456.69
2023-03-26T12:53:40.531Z,96454.78
2023-03-26T12:56:39.869Z,96453.34
2023-03-26T12:59:22.096Z,96462.84
2023-03-26T13:02:09.310Z,96453.00
2023-03-26T13:05:04.371Z,96453.31
2023-03-26T13:08:10.666Z,96445.47
2023-03-26T13:11:06.095Z,96454.38
2023-03-26T13:13:38.598Z,96456.72
2023-03-26T13:16:34.532Z,96437.28
2023-03-26T13:19:31.215Z,96431.56
2023-03-26T13:22:09.957Z,96434.69
2023-03-26T13:25:03.542Z,96427.88
2023-03-26T13:27:56.100Z,96429.13
2023-03-26T13:30:58.369Z,96419.53
2023-03-26T13:33:44.956Z,96406.56
2023-03-26T13:36:40.848Z,96401.22
2023-03-26T13:39:22.843Z,96400.03
2023-03-26T13:42:05.887Z,96398.22
2023-03-26T13:45:07.847Z,96402.16
2023-03-26T13:47:38.700Z,96383.03
2023-03-26T13:50:21.346Z,96390.56
2023-03-26T13:52:58.558Z,96397.72
2023-03-26T13:55:41.103Z,96391.78
2023-03-26T13:58:11.175Z,96383.97
2023-03-26T14:01:04.102Z,96386.34
2023-03-26T14:03:46.361Z,96393.84
2023-03-26T14:06:46.667Z,96393.78
2023-03-26T14:09:26.341Z,96380.16
2023-03-26T14:11:56.825Z,96384.59
2023-03-26T14:14:46.839Z,96393.22
2023-03-26T14:17:32.935Z,96383.81
2023-03-26T14:20:35.284Z,96387.19
2023-03-26T14:23:35.019Z,96382.06
2023-03-26T14:26:08.756Z,96385.13
2023-03-26T14:29:05.877Z,96372.66
2023-03-26T14:31:44.830Z,96369.94
2023-03-26T14:34:35.696Z,96372.44
2023-03-26T14:37:43.964Z,96353.34
2023-03-26T14:40:30.304Z,96353.34
2023-03-26T14:43:18.772Z,96355.63
2023-03-26T14:45:51.483Z,96354.81
2023-03-26T14:48:37.043Z,96345.28
2023-03-26T14:51:28.277Z,96349.25
2023-03-26T14:54:02.723Z,96341.41
2023-03-26T14:56:51.455Z,96347.22
2023-03-26T14:59:36.578Z,96347.66
2023-03-26T15:02:25.064Z,96343.00
2023-03-26T15:04:54.773Z,96343.81
2023-03-26T15:07:30.230Z,96346.72
2023-03-26T15:10:15.467Z,96346.81
2023-03-26T15:12:57.449Z,96335.53
2023-03-26T15:15:54.598Z,96336.84
2023-03-26T15:18:28.313Z,96334.63
2023-03-26T15:21:33.288Z,96341.16
2023-03-26T15:24:28.065Z,96332.56
2023-03-26T15:27:22.871Z,96337.88
2023-03-26T15:29:52.178Z,96331.16
2023-03-26T15:32:31.532Z,96332.28
2023-03-26T15:35:32.206Z,96332.94
2023-03-26T15:38:11.187Z,96341.34
2023-03-26T15:41:08.566Z,96334.81
2023-03-26T15:46:38.536Z,96332.81
2023-03-26T15:49:29.268Z,96333.69
2023-03-26T15:52:05.595Z,96337.88
2023-03-26T15:54:46.885Z,96344.44
2023-03-26T15:57:28.799Z,96339.81
2023-03-26T16:00:22.479Z,96331.50
2023-03-26T16:03:34.591Z,96339.88
2023-03-26T16:06:28.327Z,96337.16
2023-03-26T16:09:10.710Z,96334.59
2023-03-26T16:11:54.937Z,96328.59
2023-03-26T16:14:43.067Z,96334.03
2023-03-26T16:17:17.665Z,96333.91
2023-03-26T16:19:52.027Z,96338.41
2023-03-26T16:22:42.766Z,96336.38
2023-03-26T16:25:32.699Z,96327.00
2023-03-26T16:28:32.667Z,96329.94
2023-03-26T16:31:10.790Z,96327.75
2023-03-26T16:34:03.277Z,96335.16
2023-03-26T16:36:34.748Z,96319.97
2023-03-26T16:39:05.113Z,96325.13
2023-03-26T16:41:56.425Z,96320.03
2023-03-26T16:44:45.543Z,96314.13
2023-03-26T16:47:50.457Z,96319.22
2023-03-26T16:50:33.852Z,96312.50
2023-03-26T16:53:22.215Z,96308.16
2023-03-26T16:55:58.926Z,96319.09
2023-03-26T16:58:27.802Z,96320.94
2023-03-26T17:01:06.680Z,96321.69
2023-03-26T17:03:43.710Z,96333.72
2023-03-26T17:06:28.486Z,96333.94
2023-03-26T17:09:20.836Z,96342.94
2023-03-26T17:11:55.104Z,96346.00
2023-03-26T17:14:34.029Z,96350.69
2023-03-26T17:17:10.219Z,96348.34
2023-03-26T17:20:08.553Z,96350.78
2023-03-26T17:22:52.097Z,96348.41
2023-03-26T17:25:28.896Z,96336.00
2023-03-26T17:28:26.624Z,96353.44
2023-03-26T17:31:18.548Z,96362.66
2023-03-26T17:33:46.512Z,96370.44
2023-03-26T17:36:13.256Z,96378.97
2023-03-26T17:38:40.001Z,96370.66
2023-03-26T17:41:15.796Z,96397.06
2023-03-26T17:43:47.507Z,96393.75
2023-03-26T17:46:35.104Z,96399.03
2023-03-26T17:49:25.661Z,96383.41
2023-03-26T17:52:01.171Z,96410.88
2023-03-26T17:54:49.254Z,96411.56
2023-03-26T17:57:42.089Z,96425.38
2023-03-26T18:00:18.463Z,96433.53
2023-03-26T18:02:54.186Z,96435.53
2023-03-26T18:05:22.460Z,96434.31
2023-03-26T18:08:20.962Z,96442.91
2023-03-26T18:11:08.595Z,96441.28
2023-03-26T18:13:41.576Z,96447.81
2023-03-26T18:16:16.182Z,96442.41
2023-03-26T18:18:52.592Z,96442.09
2023-03-26T18:21:45.107Z,96437.59
2023-03-26T18:24:18.292Z,96430.81
2023-03-26T18:26:53.872Z,96420.28
2023-03-26T18:29:28.673Z,96409.66
2023-03-26T18:32:03.670Z,96416.88
2023-03-26T18:34:33.232Z,96417.09
2023-03-26T18:37:01.162Z,96415.41
2023-03-26T18:39:27.991Z,96425.31
2023-03-26T18:41:55.036Z,96411.03
2023-03-26T18:44:22.032Z,96415.22
2023-03-26T18:46:48.851Z,96403.34
2023-03-26T18:49:17.320Z,96402.97
2023-03-26T18:51:56.084Z,96395.16
2023-03-26T18:54:25.298Z,96383.94
2023-03-26T18:56:52.800Z,96392.47
2023-03-26T18:59:28.302Z,96388.38
2023-03-26T19:01:57.848Z,96395.09
2023-03-26T19:04:26.859Z,96396.97
2023-03-26T19:06:55.276Z,96392.41
2023-03-26T19:09:31.707Z,96385.97
2023-03-26T19:12:06.587Z,96375.78
2023-03-26T19:14:36.939Z,96378.06
2023-03-26T19:17:06.983Z,96379.81
2023-03-26T19:19:37.017Z,96381.50
2023-03-26T19:22:11.459Z,96372.69
2023-03-26T19:24:40.578Z,96375.56
2023-03-26T19:27:07.492Z,96381.31
2023-03-26T19:29:36.254Z,96384.66
2023-03-26T19:32:20.319Z,96378.31
2023-03-26T19:34:48.255Z,96372.00
2023-03-26T19:37:21.768Z,96370.09
2023-03-26T19:40:01.588Z,96379.28
2023-03-26T19:42:43.587Z,96371.06
2023-03-26T19:45:18.908Z,96370.16
2023-03-26T19:47:50.425Z,96360.31
2023-03-26T19:50:30.219Z,96361.97
2023-03-26T19:53:17.966Z,96358.59
2023-03-26T19:56:11.843Z,96335.44
2023-03-26T19:58:39.551Z,96355.84
2023-03-26T20:01:07.174Z,96349.78
2023-03-26T20:03:42.760Z,96351.72
2023-03-26T20:06:42.574Z,96354.50
2023-03-26T20:09:14.196Z,96348.09
2023-03-26T20:11:41.326Z,96334.75
2023-03-26T20:14:13.920Z,96331.88
2023-03-26T20:16:42.195Z,96338.09
2023-03-26T20:19:11.135Z,96340.28
2023-03-26T20:21:41.184Z,96338.69
2023-03-26T20:24:16.860Z,96337.91
2023-03-26T20:26:44.464Z,96320.50
2023-03-26T20:29:11.719Z,96321.59
2023-03-26T20:31:40.984Z,96322.63
2023-03-26T20:34:24.858Z,96310.91
2023-03-26T20:37:01.338Z,96320.09
2023-03-26T20:39:28.346Z,96313.44
2023-03-26T20:41:56.413Z,96304.88
2023-03-26T20:44:23.630Z,96289.03
2023-03-26T20:46:50.845Z,96297.38
2023-03-26T20:49:18.392Z,96305.72
2023-03-26T20:51:45.775Z,96307.88
2023-03-26T20:54:17.740Z,96309.03
2023-03-26T20:56:45.709Z,96306.09
2023-03-26T20:59:17.992Z,96303.19
2023-03-26T21:01:47.494Z,96296.75
2023-03-26T21:04:16.127Z,96307.56
2023-03-26T21:06:43.676Z,96299.28
2023-03-26T21:09:17.640Z,96301.44
2023-03-26T21:11:52.728Z,96298.00
2023-03-26T21:14:25.708Z,96306.63
2023-03-26T21:16:52.696Z,96297.53
2023-03-26T21:19:20.444Z,96296.50
2023-03-26T21:22:09.153Z,96291.91
2023-03-26T21:24:42.092Z,96295.97
2023-03-26T21:27:39.398Z,96290.13
2023-03-26T21:30:13.902Z,96288.03
2023-03-26T21:32:41.579Z,96287.75
2023-03-26T21:35:09.049Z,96283.81
2023-03-26T21:37:37.671Z,96286.22
2023-03-26T21:40:14.711Z,96287.03
2023-03-26T21:42:46.445Z,96275.25
2023-03-26T21:45:14.062Z,96273.09
2023-03-26T21:47:41.884Z,96271.75
2023-03-26T21:50:10.400Z,96272.56
2023-03-26T21:52:48.416Z,96260.22
2023-03-26T21:55:23.201Z,96272.59
2023-03-26T21:58:12.562Z,96268.28
2023-03-26T22:01:16.893Z,96266.44
2023-03-26T22:04:02.146Z,96273.69
2023-03-26T22:06:43.115Z,96274.78
2023-03-26T22:09:12.795Z,96262.47
2023-03-26T22:11:41.552Z,96257.09
2023-03-26T22:14:09.034Z,96271.03
2023-03-26T22:16:35.761Z,96265.69
2023-03-26T22:19:02.540Z,96255.53
2023-03-26T22:21:29.918Z,96259.56
2023-03-26T22:23:56.661Z,96244.53
2023-03-26T22:26:24.474Z,96245.06
2023-03-26T22:28:51.883Z,96235.44
2023-03-26T22:31:19.256Z,96236.78
2023-03-26T22:33:45.876Z,96234.91
2023-03-26T22:36:22.731Z,96231.44
2023-03-26T22:38:53.748Z,96224.75
2023-03-26T22:41:21.813Z,96220.75
2023-03-26T22:43:52.025Z,96227.69
2023-03-26T22:46:19.507Z,96234.38
2023-03-26T22:48:48.321Z,96225.28
2023-03-26T22:51:15.610Z,96212.16
2023-03-26T22:53:43.566Z,96203.59
2023-03-26T22:56:11.847Z,96206.78
2023-03-26T22:58:38.546Z,96198.75
2023-03-26T23:01:11.934Z,96184.59
2023-03-26T23:03:39.688Z,96186.47
2023-03-26T23:06:09.788Z,96161.84
2023-03-26T23:08:38.162Z,96178.97
2023-03-26T23:11:15.117Z,96186.19
2023-03-26T23:13:42.763Z,96171.19
2023-03-26T23:16:11.248Z,96174.94
2023-03-26T23:18:39.323Z,96174.94
2023-03-26T23:21:12.138Z,96158.06
2023-03-26T23:23:40.014Z,96161.00
2023-03-26T23:26:07.214Z,96159.94
2023-03-26T23:28:35.113Z,96173.06
2023-03-26T23:31:06.878Z,96165.03
2023-03-26T23:33:36.442Z,96165.31
2023-03-26T23:36:09.057Z,96168.22
2023-03-26T23:38:43.711Z,96162.88
2023-03-26T23:41:15.315Z,96150.56
2023-03-26T23:43:54.707Z,96136.63
2023-03-26T23:46:33.158Z,96142.25
2023-03-26T23:49:02.714Z,96154.31
2023-03-26T23:51:32.499Z,96155.09
2023-03-26T23:54:00.528Z,96161.00
2023-03-26T23:56:30.295Z,96146.31
2023-03-26T23:58:57.032Z,96131.06
